Terminal Aerodrome Forecast
Issued by NWS Sioux Falls, SD

Home | Current Version | Previous Version | Text Only | Print | Product List | Glossary Off
Versions: 1 2 3 4 5 6 7 8 9 10 11 12 13 14 15 16 17

603
FTUS43 KFSD 062339
TAFFSD
TAF
KFSD 062339Z 0700/0724 22012KT P6SM BKN120
     FM070700 27014G20KT P6SM SCT120 WS010/30045KT
     FM071400 28018G25KT P6SM SCT120
     FM072000 31024G34KT P6SM BKN040=

USA.gov is the U.S. government's official web portal to all federal, state and local government web resources and services.